Golts, Maryland
Current Conditions -  °F | °C
As of 7:58 AM on Thursday 23 Oct 2014 (Local Time) from KDOV Reporting Station
Overcast Overcast  
Wind Chill: 52°   Ceiling: 3700
Heat Index: 52°   Visibility: 10mi
Dew Point: 45°   Wind: 15mph
Humidity: 77%   Direction: 310°NW
Pressure: 29.76"   Gusts: 24mph
Location:  39.3314°N, 75.8397°W
Report Text: KDOV 231158Z AUTO 31013G21KT 10SM FEW025 OVC037 11/07 A2976 RMK AO2 SLP081 60000 70016 T01130074 10115 20106 52007
Loading
Personal Weather Stations






























Interactive Weather Map
Tropical Storm Tracking
New forecast layout! Learn more

10-Day Weather Forecast

Advertisements
Track Severe Weather on mobile